sensor_id;sensor_type;location;lat;lon;timestamp;pressure;altitude;pressure_sealevel;temperature;humidity
56514;BME280;62152;52.078;8.414;2023-02-19T00:00:37;100049.38;;;17.39;58.88
56514;BME280;62152;52.078;8.414;2023-02-19T00:04:37;100051.75;;;17.41;58.69
56514;BME280;62152;52.078;8.414;2023-02-19T00:08:40;100040.38;;;17.39;58.37
56514;BME280;62152;52.078;8.414;2023-02-19T00:12:40;100038.00;;;17.37;58.19
56514;BME280;62152;52.078;8.414;2023-02-19T00:16:41;100047.44;;;17.40;58.21
56514;BME280;62152;52.078;8.414;2023-02-19T00:20:42;100033.72;;;17.40;58.52
56514;BME280;62152;52.078;8.414;2023-02-19T00:24:44;100025.50;;;17.40;58.42
56514;BME280;62152;52.078;8.414;2023-02-19T00:28:45;100014.53;;;17.40;58.40
56514;BME280;62152;52.078;8.414;2023-02-19T00:32:49;100033.72;;;17.40;58.33
56514;BME280;62152;52.078;8.414;2023-02-19T00:36:50;100021.97;;;17.39;58.67
56514;BME280;62152;52.078;8.414;2023-02-19T00:40:51;100027.47;;;17.39;58.59
56514;BME280;62152;52.078;8.414;2023-02-19T00:44:52;100016.13;;;17.41;58.17
56514;BME280;62152;52.078;8.414;2023-02-19T00:48:54;100014.53;;;17.40;58.28
56514;BME280;62152;52.078;8.414;2023-02-19T00:52:55;100016.50;;;17.39;58.15
56514;BME280;62152;52.078;8.414;2023-02-19T00:56:57;100016.50;;;17.39;58.01
56514;BME280;62152;52.078;8.414;2023-02-19T01:00:58;100006.31;;;17.40;58.41
56514;BME280;62152;52.078;8.414;2023-02-19T01:04:58;100019.22;;;17.39;58.20
56514;BME280;62152;52.078;8.414;2023-02-19T01:08:59;100016.50;;;17.39;58.38
56514;BME280;62152;52.078;8.414;2023-02-19T01:13:01;100014.53;;;17.40;58.61
56514;BME280;62152;52.078;8.414;2023-02-19T01:17:02;100004.75;;;17.39;58.23
56514;BME280;62152;52.078;8.414;2023-02-19T01:21:04;100002.00;;;17.39;58.61
56514;BME280;62152;52.078;8.414;2023-02-19T01:25:06;100008.63;;;17.38;57.82
56514;BME280;62152;52.078;8.414;2023-02-19T01:29:08;100013.34;;;17.37;58.47
56514;BME280;62152;52.078;8.414;2023-02-19T01:33:09;100021.19;;;17.39;58.70
56514;BME280;62152;52.078;8.414;2023-02-19T01:37:10;100009.81;;;17.37;58.67
56514;BME280;62152;52.078;8.414;2023-02-19T01:41:14;100007.06;;;17.37;57.77
56514;BME280;62152;52.078;8.414;2023-02-19T01:45:22;100012.97;;;17.39;58.14
56514;BME280;62152;52.078;8.414;2023-02-19T01:49:28;100005.09;;;17.37;58.22
56514;BME280;62152;52.078;8.414;2023-02-19T01:53:35;99992.56;;;17.36;58.20
56514;BME280;62152;52.078;8.414;2023-02-19T01:57:40;99999.63;;;17.37;58.24
56514;BME280;62152;52.078;8.414;2023-02-19T02:01:44;100005.09;;;17.37;58.01
56514;BME280;62152;52.078;8.414;2023-02-19T02:05:52;99999.63;;;17.37;57.87
56514;BME280;62152;52.078;8.414;2023-02-19T02:09:55;100007.84;;;17.37;58.32
56514;BME280;62152;52.078;8.414;2023-02-19T02:13:57;99998.03;;;17.36;58.11
56514;BME280;62152;52.078;8.414;2023-02-19T02:18:07;100004.31;;;17.37;57.81
56514;BME280;62152;52.078;8.414;2023-02-19T02:22:18;100007.84;;;17.37;58.35
56514;BME280;62152;52.078;8.414;2023-02-19T02:26:41;100005.91;;;17.38;57.96
56514;BME280;62152;52.078;8.414;2023-02-19T02:30:51;100012.53;;;17.37;58.27
56514;BME280;62152;52.078;8.414;2023-02-19T02:34:57;99991.75;;;17.36;57.94
56514;BME280;62152;52.078;8.414;2023-02-19T02:39:02;99996.50;;;17.39;58.23
56514;BME280;62152;52.078;8.414;2023-02-19T02:43:08;99995.31;;;17.36;58.04
56514;BME280;62152;52.078;8.414;2023-02-19T02:47:11;100004.31;;;17.37;58.19
56514;BME280;62152;52.078;8.414;2023-02-19T02:51:18;99999.19;;;17.35;58.10
56514;BME280;62152;52.078;8.414;2023-02-19T02:55:40;100000.78;;;17.36;58.45
56514;BME280;62152;52.078;8.414;2023-02-19T02:59:46;99991.75;;;17.36;58.30
56514;BME280;62152;52.078;8.414;2023-02-19T03:03:54;99994.13;;;17.37;58.06
56514;BME280;62152;52.078;8.414;2023-02-19T03:08:01;99997.22;;;17.36;58.41
56514;BME280;62152;52.078;8.414;2023-02-19T03:12:05;99993.34;;;17.37;58.38
56514;BME280;62152;52.078;8.414;2023-02-19T03:16:11;99997.22;;;17.36;57.71
56514;BME280;62152;52.078;8.414;2023-02-19T03:20:20;100003.53;;;17.36;57.67
56514;BME280;62152;52.078;8.414;2023-02-19T03:24:27;100005.09;;;17.37;58.13
56514;BME280;62152;52.078;8.414;2023-02-19T03:28:32;100001.91;;;17.35;57.79
56514;BME280;62152;52.078;8.414;2023-02-19T03:32:40;100007.06;;;17.37;57.69
56514;BME280;62152;52.078;8.414;2023-02-19T03:36:52;100002.72;;;17.36;58.10
56514;BME280;62152;52.078;8.414;2023-02-19T03:41:04;100007.41;;;17.35;57.92
56514;BME280;62152;52.078;8.414;2023-02-19T03:45:19;100012.88;;;17.35;57.84
56514;BME280;62152;52.078;8.414;2023-02-19T03:49:28;100029.34;;;17.35;57.88
56514;BME280;62152;52.078;8.414;2023-02-19T03:53:41;100025.81;;;17.35;57.77
56514;BME280;62152;52.078;8.414;2023-02-19T03:57:50;100036.75;;;17.35;58.00
56514;BME280;62152;52.078;8.414;2023-02-19T04:01:57;100037.94;;;17.34;58.28
56514;BME280;62152;52.078;8.414;2023-02-19T04:06:03;100041.09;;;17.36;58.15
56514;BME280;62152;52.078;8.414;2023-02-19T04:10:08;100048.19;;;17.37;57.96
56514;BME280;62152;52.078;8.414;2023-02-19T04:14:19;100051.25;;;17.35;57.70
56514;BME280;62152;52.078;8.414;2023-02-19T04:18:27;100066.13;;;17.34;57.91
56514;BME280;62152;52.078;8.414;2023-02-19T04:22:30;100065.34;;;17.34;57.60
56514;BME280;62152;52.078;8.414;2023-02-19T04:26:33;100059.06;;;17.33;58.18
56514;BME280;62152;52.078;8.414;2023-02-19T04:30:34;100079.03;;;17.34;57.75
56514;BME280;62152;52.078;8.414;2023-02-19T04:34:35;100071.63;;;17.34;57.69
56514;BME280;62152;52.078;8.414;2023-02-19T04:38:36;100081.78;;;17.34;58.10
56514;BME280;62152;52.078;8.414;2023-02-19T04:42:38;100084.94;;;17.36;58.01
56514;BME280;62152;52.078;8.414;2023-02-19T04:46:38;100094.34;;;17.35;57.60
56514;BME280;62152;52.078;8.414;2023-02-19T04:50:39;100106.09;;;17.35;57.86
56514;BME280;62152;52.078;8.414;2023-02-19T04:54:40;100103.72;;;17.34;57.78
56514;BME280;62152;52.078;8.414;2023-02-19T04:58:43;100109.19;;;17.34;57.71
56514;BME280;62152;52.078;8.414;2023-02-19T05:02:44;100114.69;;;17.34;57.91
56514;BME280;62152;52.078;8.414;2023-02-19T05:06:44;100121.75;;;17.35;57.78
56514;BME280;62152;52.078;8.414;2023-02-19T05:10:45;100121.75;;;17.35;58.07
56514;BME280;62152;52.078;8.414;2023-02-19T05:14:47;100131.13;;;17.34;58.14
56514;BME280;62152;52.078;8.414;2023-02-19T05:18:48;100146.41;;;17.35;57.62
56514;BME280;62152;52.078;8.414;2023-02-19T05:22:49;100139.34;;;17.34;57.47
56514;BME280;62152;52.078;8.414;2023-02-19T05:26:49;100154.66;;;17.35;57.62
56514;BME280;62152;52.078;8.414;2023-02-19T05:30:51;100155.44;;;17.35;57.78
56514;BME280;62152;52.078;8.414;2023-02-19T05:34:52;100163.66;;;17.35;57.82
56514;BME280;62152;52.078;8.414;2023-02-19T05:38:54;100168.34;;;17.35;57.94
56514;BME280;62152;52.078;8.414;2023-02-19T05:42:55;100174.63;;;17.35;57.62
56514;BME280;62152;52.078;8.414;2023-02-19T05:46:57;100176.56;;;17.35;57.76
56514;BME280;62152;52.078;8.414;2023-02-19T05:51:01;100182.06;;;17.35;57.96
56514;BME280;62152;52.078;8.414;2023-02-19T05:55:01;100186.75;;;17.34;57.46
56514;BME280;62152;52.078;8.414;2023-02-19T05:59:04;100193.03;;;17.35;58.18
56514;BME280;62152;52.078;8.414;2023-02-19T06:03:06;100199.31;;;17.35;58.08
56514;BME280;62152;52.078;8.414;2023-02-19T06:07:07;100204.00;;;17.35;57.99
56514;BME280;62152;52.078;8.414;2023-02-19T06:11:09;100209.47;;;17.35;57.78
56514;BME280;62152;52.078;8.414;2023-02-19T06:15:10;100218.84;;;17.34;57.55
56514;BME280;62152;52.078;8.414;2023-02-19T06:19:12;100224.75;;;17.36;58.22
56514;BME280;62152;52.078;8.414;2023-02-19T06:23:13;100260.41;;;17.36;57.90
56514;BME280;62152;52.078;8.414;2023-02-19T06:27:13;100259.97;;;17.34;57.74
56514;BME280;62152;52.078;8.414;2023-02-19T06:31:15;100263.88;;;17.33;58.01
56514;BME280;62152;52.078;8.414;2023-02-19T06:35:17;100292.44;;;17.32;57.95
56514;BME280;62152;52.078;8.414;2023-02-19T06:39:17;100307.75;;;17.33;57.85
56514;BME280;62152;52.078;8.414;2023-02-19T06:43:18;100311.63;;;17.32;58.03
56514;BME280;62152;52.078;8.414;2023-02-19T06:47:19;100331.63;;;17.32;57.75
56514;BME280;62152;52.078;8.414;2023-02-19T06:51:21;100345.34;;;17.32;57.38
56514;BME280;62152;52.078;8.414;2023-02-19T06:55:21;100354.34;;;17.33;57.94
56514;BME280;62152;52.078;8.414;2023-02-19T06:59:22;100376.28;;;17.33;57.70
56514;BME280;62152;52.078;8.414;2023-02-19T07:03:23;100394.31;;;17.34;57.86
56514;BME280;62152;52.078;8.414;2023-02-19T07:07:25;100390.00;;;17.33;57.65
56514;BME280;62152;52.078;8.414;2023-02-19T07:11:29;100411.13;;;17.32;57.70
56514;BME280;62152;52.078;8.414;2023-02-19T07:15:30;100424.47;;;17.34;57.80
56514;BME280;62152;52.078;8.414;2023-02-19T07:19:31;100432.69;;;17.34;57.77
56514;BME280;62152;52.078;8.414;2023-02-19T07:23:33;100436.59;;;17.33;57.15
56514;BME280;62152;52.078;8.414;2023-02-19T07:27:34;100445.63;;;17.33;57.69
56514;BME280;62152;52.078;8.414;2023-02-19T07:31:34;100447.56;;;17.33;57.80
56514;BME280;62152;52.078;8.414;2023-02-19T07:35:35;100461.28;;;17.33;57.06
56514;BME280;62152;52.078;8.414;2023-02-19T07:39:37;100466.75;;;17.33;57.63
56514;BME280;62152;52.078;8.414;2023-02-19T07:43:38;100477.34;;;17.34;57.67
56514;BME280;62152;52.078;8.414;2023-02-19T07:47:39;100481.25;;;17.33;57.15
56514;BME280;62152;52.078;8.414;2023-02-19T07:51:40;100482.84;;;17.34;57.11
56514;BME280;62152;52.078;8.414;2023-02-19T07:55:42;100499.28;;;17.34;57.44
56514;BME280;62152;52.078;8.414;2023-02-19T07:59:43;100489.91;;;17.35;57.26
56514;BME280;62152;52.078;8.414;2023-02-19T08:03:44;100494.97;;;17.33;57.41
56514;BME280;62152;52.078;8.414;2023-02-19T08:07:45;100508.94;;;17.28;56.76
56514;BME280;62152;52.078;8.414;2023-02-19T08:11:47;100504.16;;;17.09;55.84
56514;BME280;62152;52.078;8.414;2023-02-19T08:15:49;100498.72;;;16.97;55.67
56514;BME280;62152;52.078;8.414;2023-02-19T08:19:50;100509.38;;;16.86;53.49
56514;BME280;62152;52.078;8.414;2023-02-19T08:23:50;100510.25;;;16.75;53.59
56514;BME280;62152;52.078;8.414;2023-02-19T08:27:53;100523.69;;;16.80;54.56
56514;BME280;62152;52.078;8.414;2023-02-19T08:31:53;100530.53;;;17.02;54.01
56514;BME280;62152;52.078;8.414;2023-02-19T08:35:54;100542.53;;;17.09;54.21
56514;BME280;62152;52.078;8.414;2023-02-19T08:39:54;100553.56;;;17.13;54.24
56514;BME280;62152;52.078;8.414;2023-02-19T08:43:56;100561.09;;;17.16;54.81
56514;BME280;62152;52.078;8.414;2023-02-19T08:47:58;100559.59;;;17.18;54.22
56514;BME280;62152;52.078;8.414;2023-02-19T08:51:59;100568.59;;;17.19;54.98
56514;BME280;62152;52.078;8.414;2023-02-19T08:56:04;100576.47;;;17.20;55.09
56514;BME280;62152;52.078;8.414;2023-02-19T09:00:07;100576.94;;;17.22;55.06
56514;BME280;62152;52.078;8.414;2023-02-19T09:04:11;100579.69;;;17.22;54.54
56514;BME280;62152;52.078;8.414;2023-02-19T09:08:12;100592.25;;;17.23;54.51
56514;BME280;62152;52.078;8.414;2023-02-19T09:12:12;100595.41;;;17.26;54.96
56514;BME280;62152;52.078;8.414;2023-02-19T09:16:15;100594.03;;;17.32;55.11
56514;BME280;62152;52.078;8.414;2023-02-19T09:20:15;100613.56;;;17.30;55.07
56514;BME280;62152;52.078;8.414;2023-02-19T09:24:16;100631.13;;;17.29;55.65
56514;BME280;62152;52.078;8.414;2023-02-19T09:28:17;100636.63;;;17.29;56.07
56514;BME280;62152;52.078;8.414;2023-02-19T09:32:19;100644.53;;;17.31;55.86
56514;BME280;62152;52.078;8.414;2023-02-19T09:36:20;100650.00;;;17.31;55.83
56514;BME280;62152;52.078;8.414;2023-02-19T09:40:20;100668.41;;;17.30;56.16
56514;BME280;62152;52.078;8.414;2023-02-19T09:44:26;100669.19;;;17.31;55.23
56514;BME280;62152;52.078;8.414;2023-02-19T09:48:30;100680.97;;;17.31;55.91
56514;BME280;62152;52.078;8.414;2023-02-19T09:52:35;100698.19;;;17.32;55.42
56514;BME280;62152;52.078;8.414;2023-02-19T09:56:38;100695.47;;;17.32;55.39
56514;BME280;62152;52.078;8.414;2023-02-19T10:00:39;100712.72;;;17.32;56.16
56514;BME280;62152;52.078;8.414;2023-02-19T10:04:43;100712.34;;;17.34;55.48
56514;BME280;62152;52.078;8.414;2023-02-19T10:08:44;100712.34;;;17.34;56.27
56514;BME280;62152;52.078;8.414;2023-02-19T10:12:47;100731.53;;;17.34;55.46
56514;BME280;62152;52.078;8.414;2023-02-19T10:16:49;100756.66;;;17.36;55.79
56514;BME280;62152;52.078;8.414;2023-02-19T10:20:52;100753.91;;;17.36;55.84
56514;BME280;62152;52.078;8.414;2023-02-19T10:24:55;100751.53;;;17.34;56.00
56514;BME280;62152;52.078;8.414;2023-02-19T10:28:55;100753.06;;;17.60;56.89
56514;BME280;62152;52.078;8.414;2023-02-19T10:32:59;100779.88;;;17.66;56.34
56514;BME280;62152;52.078;8.414;2023-02-19T10:37:02;100783.22;;;17.72;56.71
56514;BME280;62152;52.078;8.414;2023-02-19T10:41:05;100790.28;;;17.73;56.96
56514;BME280;62152;52.078;8.414;2023-02-19T10:45:17;100788.72;;;17.72;57.12
56514;BME280;62152;52.078;8.414;2023-02-19T10:49:23;100780.91;;;17.74;56.97
56514;BME280;62152;52.078;8.414;2023-02-19T10:53:39;100777.38;;;17.73;57.17
56514;BME280;62152;52.078;8.414;2023-02-19T10:57:40;100779.75;;;17.75;56.90
56514;BME280;62152;52.078;8.414;2023-02-19T11:01:52;100787.31;;;17.78;57.27
56514;BME280;62152;52.078;8.414;2023-02-19T11:05:59;100787.31;;;17.78;56.89
56514;BME280;62152;52.078;8.414;2023-02-19T11:10:03;100802.63;;;17.79;57.04
56514;BME280;62152;52.078;8.414;2023-02-19T11:14:14;100810.06;;;17.79;57.22
56514;BME280;62152;52.078;8.414;2023-02-19T11:18:21;100813.97;;;17.65;57.36
56514;BME280;62152;52.078;8.414;2023-02-19T11:22:31;100805.97;;;17.60;57.60
56514;BME280;62152;52.078;8.414;2023-02-19T11:26:34;100813.28;;;17.56;57.95
56514;BME280;62152;52.078;8.414;2023-02-19T11:30:38;100810.09;;;17.54;57.66
56514;BME280;62152;52.078;8.414;2023-02-19T11:34:39;100804.59;;;17.54;57.58
56514;BME280;62152;52.078;8.414;2023-02-19T11:38:39;100816.38;;;17.55;57.59
56514;BME280;62152;52.078;8.414;2023-02-19T11:42:51;100817.97;;;17.56;57.16
56514;BME280;62152;52.078;8.414;2023-02-19T11:47:14;100822.66;;;17.55;56.89
56514;BME280;62152;52.078;8.414;2023-02-19T11:51:37;100804.16;;;17.52;56.82
56514;BME280;62152;52.078;8.414;2023-02-19T11:55:51;100803.81;;;17.54;56.88
56514;BME280;62152;52.078;8.414;2023-02-19T12:05:01;100784.25;;;17.55;57.24
56514;BME280;62152;52.078;8.414;2023-02-19T12:09:35;100785.84;;;17.56;56.85
56514;BME280;62152;52.078;8.414;2023-02-19T12:14:01;100794.56;;;17.58;57.23
56514;BME280;62152;52.078;8.414;2023-02-19T12:18:23;100800.72;;;17.55;57.48
56514;BME280;62152;52.078;8.414;2023-02-19T12:22:31;100803.81;;;17.54;57.00
56514;BME280;62152;52.078;8.414;2023-02-19T12:26:40;100802.22;;;17.53;57.25
56514;BME280;62152;52.078;8.414;2023-02-19T12:31:04;100811.25;;;17.53;57.24
56514;BME280;62152;52.078;8.414;2023-02-19T12:35:36;100826.56;;;17.54;56.77
56514;BME280;62152;52.078;8.414;2023-02-19T12:39:50;100834.78;;;17.54;57.03
56514;BME280;62152;52.078;8.414;2023-02-19T12:44:00;100837.88;;;17.53;56.89
56514;BME280;62152;52.078;8.414;2023-02-19T12:48:19;100837.53;;;17.54;57.40
56514;BME280;62152;52.078;8.414;2023-02-19T12:52:30;100837.53;;;17.54;56.88
56514;BME280;62152;52.078;8.414;2023-02-19T12:56:38;100849.63;;;17.53;57.19
56514;BME280;62152;52.078;8.414;2023-02-19T13:00:46;100858.66;;;17.54;57.04
56514;BME280;62152;52.078;8.414;2023-02-19T13:04:55;100856.72;;;17.54;57.04
56514;BME280;62152;52.078;8.414;2023-02-19T13:09:03;100849.28;;;17.55;56.70
56514;BME280;62152;52.078;8.414;2023-02-19T13:13:14;100854.41;;;17.56;56.48
56514;BME280;62152;52.078;8.414;2023-02-19T13:17:26;100847.00;;;17.57;57.19
56514;BME280;62152;52.078;8.414;2023-02-19T13:21:30;100851.69;;;17.56;56.60
56514;BME280;62152;52.078;8.414;2023-02-19T13:25:47;100840.72;;;17.56;56.98
56514;BME280;62152;52.078;8.414;2023-02-19T13:30:06;100856.38;;;17.56;56.66
56514;BME280;62152;52.078;8.414;2023-02-19T13:34:22;100859.91;;;17.56;56.76
56514;BME280;62152;52.078;8.414;2023-02-19T13:38:27;100863.44;;;17.57;56.37
56514;BME280;62152;52.078;8.414;2023-02-19T13:42:32;100863.44;;;17.57;56.19
56514;BME280;62152;52.078;8.414;2023-02-19T13:46:37;100861.84;;;17.56;56.88
56514;BME280;62152;52.078;8.414;2023-02-19T13:50:39;100853.63;;;17.56;56.45
56514;BME280;62152;52.078;8.414;2023-02-19T13:54:41;100850.88;;;17.56;56.96
56514;BME280;62152;52.078;8.414;2023-02-19T13:58:54;100852.03;;;17.55;56.81
56514;BME280;62152;52.078;8.414;2023-02-19T14:03:25;100866.53;;;17.55;56.30
56514;BME280;62152;52.078;8.414;2023-02-19T14:07:48;100874.78;;;17.55;56.94
56514;BME280;62152;52.078;8.414;2023-02-19T14:12:04;100880.25;;;17.55;56.33
56514;BME280;62152;52.078;8.414;2023-02-19T14:16:30;100886.91;;;17.54;56.60
56514;BME280;62152;52.078;8.414;2023-02-19T14:20:43;100893.97;;;17.55;56.64
56514;BME280;62152;52.078;8.414;2023-02-19T14:24:45;100901.75;;;17.53;56.31
56514;BME280;62152;52.078;8.414;2023-02-19T14:28:47;100905.66;;;17.52;56.38
56514;BME280;62152;52.078;8.414;2023-02-19T14:32:50;100910.78;;;17.54;56.39
56514;BME280;62152;52.078;8.414;2023-02-19T14:36:55;100908.03;;;17.54;56.40
56514;BME280;62152;52.078;8.414;2023-02-19T14:40:58;100910.78;;;17.54;56.64
56514;BME280;62152;52.078;8.414;2023-02-19T14:45:03;100918.22;;;17.53;56.46
56514;BME280;62152;52.078;8.414;2023-02-19T14:49:16;100913.06;;;17.52;56.75
56514;BME280;62152;52.078;8.414;2023-02-19T14:53:22;100898.56;;;17.51;56.97
56514;BME280;62152;52.078;8.414;2023-02-19T14:57:27;100892.28;;;17.50;56.44
56514;BME280;62152;52.078;8.414;2023-02-19T15:01:28;100880.97;;;17.52;56.41
56514;BME280;62152;52.078;8.414;2023-02-19T15:05:33;100870.00;;;17.52;56.28
56514;BME280;62152;52.078;8.414;2023-02-19T15:09:39;100865.53;;;17.72;58.01
56514;BME280;62152;52.078;8.414;2023-02-19T15:13:42;100861.72;;;17.76;57.31
56514;BME280;62152;52.078;8.414;2023-02-19T15:17:47;100848.56;;;17.82;57.58
56514;BME280;62152;52.078;8.414;2023-02-19T15:21:51;100843.19;;;17.86;57.44
56514;BME280;62152;52.078;8.414;2023-02-19T15:25:52;100843.19;;;17.86;57.54
56514;BME280;62152;52.078;8.414;2023-02-19T15:29:53;100843.50;;;17.84;56.84
56514;BME280;62152;52.078;8.414;2023-02-19T15:33:54;100845.34;;;17.92;57.17
56514;BME280;62152;52.078;8.414;2023-02-19T15:37:56;100841.09;;;17.95;56.83
56514;BME280;62152;52.078;8.414;2023-02-19T15:42:00;100841.09;;;17.95;56.90
56514;BME280;62152;52.078;8.414;2023-02-19T15:46:07;100833.84;;;18.02;56.78
56514;BME280;62152;52.078;8.414;2023-02-19T15:50:14;100841.47;;;18.09;57.20
56514;BME280;62152;52.078;8.414;2023-02-19T15:54:24;100845.56;;;18.15;57.07
56514;BME280;62152;52.078;8.414;2023-02-19T15:58:31;100853.38;;;18.13;57.83
56514;BME280;62152;52.078;8.414;2023-02-19T16:02:35;100864.16;;;18.06;57.57
56514;BME280;62152;52.078;8.414;2023-02-19T16:06:50;100878.31;;;18.08;57.04
56514;BME280;62152;52.078;8.414;2023-02-19T16:10:54;100884.72;;;18.12;57.59
56514;BME280;62152;52.078;8.414;2023-02-19T16:14:55;100881.50;;;18.10;57.19
56514;BME280;62152;52.078;8.414;2023-02-19T16:18:56;100889.75;;;18.10;57.77
56514;BME280;62152;52.078;8.414;2023-02-19T16:23:02;100891.00;;;18.13;57.55
56514;BME280;62152;52.078;8.414;2023-02-19T16:27:04;100894.88;;;18.12;58.03
56514;BME280;62152;52.078;8.414;2023-02-19T16:31:08;100898.09;;;18.14;57.98
56514;BME280;62152;52.078;8.414;2023-02-19T16:39:45;100902.00;;;18.13;57.44
56514;BME280;62152;52.078;8.414;2023-02-19T16:43:47;100899.56;;;18.11;57.91
56514;BME280;62152;52.078;8.414;2023-02-19T16:47:48;100903.94;;;18.12;58.00
56514;BME280;62152;52.078;8.414;2023-02-19T16:51:49;100914.56;;;18.14;57.47
56514;BME280;62152;52.078;8.414;2023-02-19T16:55:51;100924.03;;;18.16;57.90
56514;BME280;62152;52.078;8.414;2023-02-19T16:59:53;100921.28;;;18.16;57.24
56514;BME280;62152;52.078;8.414;2023-02-19T17:03:57;100927.94;;;18.15;58.00
56514;BME280;62152;52.078;8.414;2023-02-19T17:07:59;100932.28;;;18.16;57.55
56514;BME280;62152;52.078;8.414;2023-02-19T17:11:59;100917.06;;;18.19;57.73
56514;BME280;62152;52.078;8.414;2023-02-19T17:16:02;100926.22;;;18.11;57.02
56514;BME280;62152;52.078;8.414;2023-02-19T17:20:20;100930.56;;;18.12;56.99
56514;BME280;62152;52.078;8.414;2023-02-19T17:24:21;100932.28;;;18.16;57.09
56514;BME280;62152;52.078;8.414;2023-02-19T17:28:22;100932.28;;;18.16;57.64
56514;BME280;62152;52.078;8.414;2023-02-19T17:32:24;100938.91;;;18.15;57.44
56514;BME280;62152;52.078;8.414;2023-02-19T17:36:26;100943.97;;;18.13;57.19
56514;BME280;62152;52.078;8.414;2023-02-19T17:40:29;100942.91;;;18.18;57.64
56514;BME280;62152;52.078;8.414;2023-02-19T17:44:30;100944.97;;;18.21;58.53
56514;BME280;62152;52.078;8.414;2023-02-19T17:48:32;100944.81;;;18.29;60.94
56514;BME280;62152;52.078;8.414;2023-02-19T17:52:33;100927.66;;;18.33;63.09
56514;BME280;62152;52.078;8.414;2023-02-19T17:56:33;100937.69;;;18.41;66.25
56514;BME280;62152;52.078;8.414;2023-02-19T18:00:34;100926.63;;;18.25;64.48
56514;BME280;62152;52.078;8.414;2023-02-19T18:04:36;100923.94;;;18.13;64.35
56514;BME280;62152;52.078;8.414;2023-02-19T18:08:37;100925.34;;;18.07;64.08
56514;BME280;62152;52.078;8.414;2023-02-19T18:12:38;100941.69;;;18.03;63.34
56514;BME280;62152;52.078;8.414;2023-02-19T18:16:44;100934.59;;;18.02;63.32
56514;BME280;62152;52.078;8.414;2023-02-19T18:20:46;100941.59;;;17.99;63.18
56514;BME280;62152;52.078;8.414;2023-02-19T18:24:48;100946.63;;;17.97;62.89
56514;BME280;62152;52.078;8.414;2023-02-19T18:28:49;100948.97;;;18.11;61.50
56514;BME280;62152;52.078;8.414;2023-02-19T18:32:50;100972.31;;;18.17;60.94
56514;BME280;62152;52.078;8.414;2023-02-19T18:36:52;100972.78;;;18.19;60.45
56514;BME280;62152;52.078;8.414;2023-02-19T18:40:53;100977.56;;;18.22;60.35
56514;BME280;62152;52.078;8.414;2023-02-19T18:44:55;100972.97;;;18.26;60.32
56514;BME280;62152;52.078;8.414;2023-02-19T18:48:55;100965.91;;;18.25;60.89
56514;BME280;62152;52.078;8.414;2023-02-19T18:52:57;100976.06;;;18.25;60.02
56514;BME280;62152;52.078;8.414;2023-02-19T18:56:58;100966.69;;;18.26;60.01
56514;BME280;62152;52.078;8.414;2023-02-19T19:00:59;100982.47;;;18.29;60.12
56514;BME280;62152;52.078;8.414;2023-02-19T19:04:59;100981.66;;;18.28;60.32
56514;BME280;62152;52.078;8.414;2023-02-19T19:09:02;100987.16;;;18.28;60.14
56514;BME280;62152;52.078;8.414;2023-02-19T19:13:03;100974.22;;;18.29;60.32
56514;BME280;62152;52.078;8.414;2023-02-19T19:17:03;100971.47;;;18.29;60.21
56514;BME280;62152;52.078;8.414;2023-02-19T19:21:04;100976.25;;;18.32;60.38
56514;BME280;62152;52.078;8.414;2023-02-19T19:25:07;100987.59;;;18.30;60.43
56514;BME280;62152;52.078;8.414;2023-02-19T19:29:08;100989.19;;;18.31;59.79
56514;BME280;62152;52.078;8.414;2023-02-19T19:33:09;100975.47;;;18.31;60.30
56514;BME280;62152;52.078;8.414;2023-02-19T19:37:09;100971.25;;;18.34;60.07
56514;BME280;62152;52.078;8.414;2023-02-19T19:41:13;100961.41;;;18.33;59.96
56514;BME280;62152;52.078;8.414;2023-02-19T19:45:14;100966.91;;;18.33;60.30
56514;BME280;62152;52.078;8.414;2023-02-19T19:49:16;100968.84;;;18.33;59.72
56514;BME280;62152;52.078;8.414;2023-02-19T19:53:17;100974.78;;;18.35;59.75
56514;BME280;62152;52.078;8.414;2023-02-19T19:57:19;100977.16;;;18.36;60.20
56514;BME280;62152;52.078;8.414;2023-02-19T20:01:20;100999.16;;;18.36;60.30
56514;BME280;62152;52.078;8.414;2023-02-19T20:05:21;101005.78;;;18.35;60.27
56514;BME280;62152;52.078;8.414;2023-02-19T20:09:21;101006.13;;;18.34;59.95
56514;BME280;62152;52.078;8.414;2023-02-19T20:13:23;100997.63;;;18.39;60.28
56514;BME280;62152;52.078;8.414;2023-02-19T20:17:24;101003.13;;;18.39;60.36
56514;BME280;62152;52.078;8.414;2023-02-19T20:21:25;101007.03;;;18.38;59.69
56514;BME280;62152;52.078;8.414;2023-02-19T20:25:25;101010.69;;;18.42;60.34
56514;BME280;62152;52.078;8.414;2023-02-19T20:29:29;101000.84;;;18.41;59.40
56514;BME280;62152;52.078;8.414;2023-02-19T20:33:30;100998.09;;;18.41;60.20
56514;BME280;62152;52.078;8.414;2023-02-19T20:37:31;100988.72;;;18.42;59.70
56514;BME280;62152;52.078;8.414;2023-02-19T20:41:31;100989.06;;;18.40;59.61
56514;BME280;62152;52.078;8.414;2023-02-19T20:45:34;100985.25;;;18.45;59.83
56514;BME280;62152;52.078;8.414;2023-02-19T20:49:35;100986.44;;;18.31;60.13
56514;BME280;62152;52.078;8.414;2023-02-19T20:53:35;100965.78;;;18.22;60.38
56514;BME280;62152;52.078;8.414;2023-02-19T20:57:36;100973.91;;;18.18;60.40
56514;BME280;62152;52.078;8.414;2023-02-19T21:01:38;100961.22;;;18.14;60.43
56514;BME280;62152;52.078;8.414;2023-02-19T21:05:39;100970.63;;;18.13;60.36
56514;BME280;62152;52.078;8.414;2023-02-19T21:09:40;100978.38;;;18.11;59.75
56514;BME280;62152;52.078;8.414;2023-02-19T21:13:41;100988.13;;;18.08;60.23
56514;BME280;62152;52.078;8.414;2023-02-19T21:17:44;100977.84;;;18.05;60.11
56514;BME280;62152;52.078;8.414;2023-02-19T21:21:45;100982.50;;;18.04;59.81
56514;BME280;62152;52.078;8.414;2023-02-19T21:25:45;100998.19;;;18.04;60.11